Time;durP1;ratioP1;P1;durP2;ratioP2;P2;SDS_P1;SDS_P2;PMS_P1;PMS_P2;Temp;Humidity;BMP_temperature;BMP_pressure;BME280_temperature;BME280_humidity;BME280_pressure;Samples;Min_cycle;Max_cycle;Signal;HPM_P1;HPM_P2
2022/05/12 00:00:16;;;;;;;;;;;;;;;15.26;69.00;99570.47;4937182;29;19931;-69
2022/05/12 00:02:47;;;;;;;;;;;;;;;15.24;68.93;99563.66;4937009;29;19934;-69
2022/05/12 00:05:16;;;;;;;;;;;;;;;15.25;68.93;99566.22;4936897;29;19927;-69
2022/05/12 00:07:44;;;;;;;;;;;;;;;15.26;68.61;99556.78;4937111;29;19930;-69
2022/05/12 00:10:15;;;;;;;;;;;;;;;15.25;68.31;99548.22;4937046;29;20021;-69
2022/05/12 00:12:44;;;;;;;;;;;;;;;15.24;68.67;99551.66;4936803;29;19979;-69
2022/05/12 00:15:14;;;;;;;;;;;;;;;15.26;68.38;99551.63;4937028;29;19927;-69
2022/05/12 00:17:44;;;;;;;;;;;;;;;15.17;68.70;99549.22;4937116;29;19981;-69
2022/05/12 00:20:16;;;;;;;;;;;;;;;15.13;68.86;99548.47;4936710;29;19978;-69
2022/05/12 00:22:45;;;;;;;;;;;;;;;15.11;68.86;99545.09;4936787;29;19927;-69
2022/05/12 00:25:15;;;;;;;;;;;;;;;15.10;68.94;99542.53;4935818;29;19973;-69
2022/05/12 00:27:43;;;;;;;;;;;;;;;15.04;68.87;99547.81;4974379;28;19926;-69
2022/05/12 00:30:13;;;;;;;;;;;;;;;15.01;69.29;99542.75;4975023;28;20299;-69
2022/05/12 00:32:43;;;;;;;;;;;;;;;15.00;69.18;99536.75;4975192;28;19948;-69
2022/05/12 00:35:13;;;;;;;;;;;;;;;14.90;69.07;99542.13;4974943;28;20021;-69
2022/05/12 00:37:43;;;;;;;;;;;;;;;14.83;69.55;99543.13;4975530;28;20350;-69
2022/05/12 00:40:13;;;;;;;;;;;;;;;14.80;69.61;99543.19;4975242;28;20292;-69
2022/05/12 00:42:53;;;;;;;;;;;;;;;14.79;69.33;99544.91;4974942;28;19933;-69
2022/05/12 00:45:21;;;;;;;;;;;;;;;14.85;69.31;99549.06;4975796;28;20416;-69
2022/05/12 00:47:50;;;;;;;;;;;;;;;14.81;69.79;99550.00;4974844;28;19981;-69
2022/05/12 00:50:19;;;;;;;;;;;;;;;14.78;69.83;99546.63;4974831;28;19926;-69
2022/05/12 00:52:50;;;;;;;;;;;;;;;14.81;69.45;99555.97;4957806;28;19926;-68
2022/05/12 00:55:21;;;;;;;;;;;;;;;14.81;69.41;99550.00;4974830;28;19934;-69
2022/05/12 00:57:51;;;;;;;;;;;;;;;14.78;69.22;99549.19;4975011;28;20025;-68
2022/05/12 01:00:21;;;;;;;;;;;;;;;14.68;69.39;99550.22;4978905;28;19933;-69
2022/05/12 01:02:51;;;;;;;;;;;;;;;14.60;69.52;99551.28;4978731;28;20013;-68
2022/05/12 01:05:20;;;;;;;;;;;;;;;14.54;69.71;99549.66;4978424;28;19926;-68
2022/05/12 01:07:51;;;;;;;;;;;;;;;14.53;69.84;99542.84;4978646;28;19926;-69
2022/05/12 01:10:22;;;;;;;;;;;;;;;14.50;70.30;99540.31;4978403;28;19930;-68
2022/05/12 01:12:51;;;;;;;;;;;;;;;14.51;70.38;99541.19;4978173;28;20017;-68
2022/05/12 01:15:21;;;;;;;;;;;;;;;14.42;70.30;99542.19;4978557;28;19926;-68
2022/05/12 01:17:50;;;;;;;;;;;;;;;14.39;70.28;99542.25;4978692;28;20095;-69
2022/05/12 01:20:18;;;;;;;;;;;;;;;14.41;70.46;99555.06;4978636;28;19926;-69
2022/05/12 01:22:51;;;;;;;;;;;;;;;14.42;70.58;99547.31;4978033;28;19972;-69
2022/05/12 01:25:23;;;;;;;;;;;;;;;14.33;70.81;99542.34;4978131;28;19996;-69
2022/05/12 01:27:52;;;;;;;;;;;;;;;14.31;70.58;99549.25;4978093;28;20025;-69
2022/05/12 01:30:22;;;;;;;;;;;;;;;14.31;71.04;99558.66;4977996;28;19930;-69
2022/05/12 01:32:51;;;;;;;;;;;;;;;14.23;70.75;99556.19;4978315;28;19926;-69
2022/05/12 01:35:21;;;;;;;;;;;;;;;14.15;71.03;99563.19;4977800;28;19930;-69
2022/05/12 01:37:50;;;;;;;;;;;;;;;14.15;71.08;99557.22;4978198;28;19930;-69
2022/05/12 01:40:20;;;;;;;;;;;;;;;14.09;71.05;99553.00;4977809;28;19930;-69
2022/05/12 01:42:51;;;;;;;;;;;;;;;14.02;71.55;99557.41;4977827;28;19933;-69
2022/05/12 01:45:20;;;;;;;;;;;;;;;13.90;71.47;99554.19;4977718;28;19933;-69
2022/05/12 01:47:50;;;;;;;;;;;;;;;13.85;71.97;99548.28;4977675;28;19981;-69
2022/05/12 01:50:19;;;;;;;;;;;;;;;13.70;72.51;99551.94;4977702;28;19932;-69
2022/05/12 01:52:48;;;;;;;;;;;;;;;13.73;72.61;99544.19;4977957;28;19969;-69
2022/05/12 01:55:19;;;;;;;;;;;;;;;13.63;72.25;99557.22;4977719;28;19926;-69
2022/05/12 01:57:48;;;;;;;;;;;;;;;13.54;73.01;99555.59;4960838;28;19953;-68
2022/05/12 02:00:22;;;;;;;;;;;;;;;13.39;73.05;99554.09;4977737;28;19933;-68
2022/05/12 02:02:50;;;;;;;;;;;;;;;13.36;73.57;99559.28;4977708;28;20505;-69
2022/05/12 02:05:19;;;;;;;;;;;;;;;13.34;73.66;99555.88;4960221;28;19926;-69
2022/05/12 02:07:49;;;;;;;;;;;;;;;13.28;73.68;99558.53;4977666;28;19926;-69
2022/05/12 02:10:20;;;;;;;;;;;;;;;13.25;74.15;99550.91;4977312;28;19926;-69
2022/05/12 02:12:48;;;;;;;;;;;;;;;13.25;74.10;99548.31;4977359;28;19933;-69
2022/05/12 02:15:19;;;;;;;;;;;;;;;13.30;74.02;99559.38;4977104;28;19927;-69
2022/05/12 02:17:49;;;;;;;;;;;;;;;13.18;74.16;99558.69;4977427;28;20451;-69
2022/05/12 02:20:18;;;;;;;;;;;;;;;13.14;74.39;99557.88;4977089;28;19926;-69
2022/05/12 02:22:47;;;;;;;;;;;;;;;13.17;74.55;99557.00;4977238;28;19929;-69
2022/05/12 02:25:16;;;;;;;;;;;;;;;13.13;74.72;99551.06;4976892;28;19964;-69
2022/05/12 02:27:46;;;;;;;;;;;;;;;13.10;74.97;99556.22;4976937;28;19926;-69
2022/05/12 02:30:16;;;;;;;;;;;;;;;13.18;74.77;99554.41;4976953;28;20443;-68
2022/05/12 02:32:46;;;;;;;;;;;;;;;13.26;75.10;99556.88;4977038;28;20269;-69
2022/05/12 02:35:15;;;;;;;;;;;;;;;13.29;74.94;99562.78;4976745;28;19982;-69
2022/05/12 02:37:43;;;;;;;;;;;;;;;13.44;74.94;99554.03;4976724;28;19930;-69
2022/05/12 02:40:13;;;;;;;;;;;;;;;13.53;74.35;99571.03;4976684;28;19977;-69
2022/05/12 02:42:43;;;;;;;;;;;;;;;13.44;74.35;99567.72;4976996;28;20017;-69
2022/05/12 02:45:12;;;;;;;;;;;;;;;13.51;74.29;99562.50;4976629;28;19961;-69
2022/05/12 02:47:41;;;;;;;;;;;;;;;13.54;73.90;99572.69;4976807;28;19926;-69
2022/05/12 02:50:13;;;;;;;;;;;;;;;13.46;74.24;99564.28;4976488;28;19954;-69
2022/05/12 02:52:42;;;;;;;;;;;;;;;13.52;73.96;99553.94;4976478;28;20017;-69
2022/05/12 02:55:11;;;;;;;;;;;;;;;13.39;74.04;99558.38;4976732;28;19926;-69
2022/05/12 02:57:41;;;;;;;;;;;;;;;13.29;74.36;99560.22;4976637;28;19926;-69
2022/05/12 03:00:12;;;;;;;;;;;;;;;13.26;74.25;99562.00;4976409;28;19933;-69
2022/05/12 03:02:42;;;;;;;;;;;;;;;13.24;74.38;99559.47;4976346;28;19941;-69
2022/05/12 03:05:12;;;;;;;;;;;;;;;13.11;74.37;99568.16;4976208;28;20483;-69
2022/05/12 03:07:42;;;;;;;;;;;;;;;13.07;74.92;99566.53;4975607;28;19926;-69
2022/05/12 03:10:11;;;;;;;;;;;;;;;13.08;74.73;99569.91;4976153;28;19956;-69
2022/05/12 03:12:40;;;;;;;;;;;;;;;12.91;75.02;99570.09;4976102;28;19930;-69
2022/05/12 03:15:09;;;;;;;;;;;;;;;12.93;75.41;99564.97;4976362;28;20439;-69
2022/05/12 03:17:39;;;;;;;;;;;;;;;12.85;nan;99559.94;4976037;28;19926;-69
2022/05/12 03:20:10;;;;;;;;;;;;;;;12.85;75.79;99559.94;4976264;28;20368;-69
2022/05/12 03:22:40;;;;;;;;;;;;;;;12.86;75.67;99569.28;4975446;28;20436;-68
2022/05/12 03:25:10;;;;;;;;;;;;;;;12.77;75.86;99561.72;4975899;28;19969;-69
2022/05/12 03:27:40;;;;;;;;;;;;;;;12.75;76.07;99561.75;4975676;28;19926;-69
2022/05/12 03:30:11;;;;;;;;;;;;;;;12.73;76.18;99565.19;4975800;28;19926;-68
2022/05/12 03:32:40;;;;;;;;;;;;;;;12.71;76.33;99577.16;4976022;28;19932;-69
2022/05/12 03:35:09;;;;;;;;;;;;;;;12.71;76.14;99577.16;4975710;28;20384;-69
2022/05/12 03:37:41;;;;;;;;;;;;;;;12.76;76.54;99575.41;4974949;28;19926;-69
2022/05/12 03:40:11;;;;;;;;;;;;;;;12.85;76.71;99575.28;4975942;28;20455;-69
2022/05/12 03:42:40;;;;;;;;;;;;;;;12.95;76.58;99579.44;4975880;28;20336;-69
2022/05/12 03:45:09;;;;;;;;;;;;;;;13.03;76.34;99590.44;4975503;28;19926;-69
2022/05/12 03:47:39;;;;;;;;;;;;;;;13.06;75.86;99585.31;4975779;28;20028;-69
2022/05/12 03:50:09;;;;;;;;;;;;;;;13.10;76.22;99592.09;4975697;28;19933;-70
2022/05/12 03:52:47;;;;;;;;;;;;;;;13.18;76.17;99586.88;4975429;28;20024;-69
2022/05/12 03:55:17;;;;;;;;;;;;;;;13.28;75.61;99591.00;4958456;28;19932;-69
2022/05/12 03:57:47;;;;;;;;;;;;;;;13.33;75.37;99590.09;4975376;28;19926;-69
2022/05/12 04:00:18;;;;;;;;;;;;;;;13.42;75.42;99583.97;4975369;28;20340;-68
2022/05/12 04:02:47;;;;;;;;;;;;;;;13.50;75.54;99576.19;4975616;28;20002;-69
2022/05/12 04:05:18;;;;;;;;;;;;;;;13.62;74.86;99592.25;4975255;28;19926;-69
2022/05/12 04:07:51;;;;;;;;;;;;;;;13.67;74.76;99589.63;4958506;28;19968;-69
2022/05/12 04:10:20;;;;;;;;;;;;;;;13.72;74.97;99587.84;4975284;28;19926;-69
2022/05/12 04:12:49;;;;;;;;;;;;;;;13.85;74.68;99594.47;4975101;28;19930;-69
2022/05/12 04:15:18;;;;;;;;;;;;;;;13.91;74.24;99595.25;4975734;28;20325;-69
2022/05/12 04:17:55;;;;;;;;;;;;;;;13.99;74.60;99597.66;4975362;28;19930;-69
2022/05/12 04:20:24;;;;;;;;;;;;;;;14.11;74.32;99592.31;4975461;28;20025;-69
2022/05/12 04:22:54;;;;;;;;;;;;;;;14.23;73.62;99597.25;4975391;28;19926;-69
2022/05/12 04:25:22;;;;;;;;;;;;;;;14.35;73.22;99601.41;4974923;28;20032;-71
2022/05/12 04:27:51;;;;;;;;;;;;;;;14.48;73.13;99608.00;4975309;28;19977;-69
2022/05/12 04:30:22;;;;;;;;;;;;;;;14.59;73.08;99606.06;4974895;28;20024;-69
2022/05/12 04:32:51;;;;;;;;;;;;;;;14.72;72.27;99610.97;4975143;28;19937;-69
2022/05/12 04:35:20;;;;;;;;;;;;;;;14.85;72.07;99615.88;4979372;28;19926;-69
2022/05/12 04:37:50;;;;;;;;;;;;;;;14.92;71.79;99608.03;4979254;28;19965;-69
2022/05/12 04:40:21;;;;;;;;;;;;;;;15.04;71.86;99609.50;4978824;28;20017;-69
2022/05/12 04:42:50;;;;;;;;;;;;;;;15.22;71.53;99609.13;4979298;28;20438;-69
2022/05/12 04:45:19;;;;;;;;;;;;;;;15.40;70.79;99608.75;4978839;28;19981;-69
2022/05/12 04:47:48;;;;;;;;;;;;;;;15.56;70.25;99610.16;4978811;28;19926;-69
2022/05/12 04:50:18;;;;;;;;;;;;;;;15.75;69.67;99619.16;4979120;28;19930;-69
2022/05/12 04:52:47;;;;;;;;;;;;;;;15.91;69.20;99607.59;4979067;28;19930;-69
2022/05/12 04:55:16;;;;;;;;;;;;;;;15.95;68.58;99613.53;4979008;28;19973;-69
2022/05/12 04:57:52;;;;;;;;;;;;;;;16.05;68.46;99615.84;4978663;28;19930;-69
2022/05/12 05:00:31;;;;;;;;;;;;;;;16.22;67.97;99620.59;4979115;28;20017;-69
2022/05/12 05:03:00;;;;;;;;;;;;;;;16.40;67.49;99622.72;4978553;28;19926;-69
2022/05/12 05:05:29;;;;;;;;;;;;;;;16.56;67.06;99612.88;4978570;28;19926;-69
2022/05/12 05:07:58;;;;;;;;;;;;;;;16.64;66.22;99616.13;4978309;28;19926;-69
2022/05/12 05:10:27;;;;;;;;;;;;;;;16.77;65.72;99614.94;4978403;28;20041;-69
2022/05/12 05:12:57;;;;;;;;;;;;;;;16.89;65.08;99617.16;4978357;28;19926;-69
2022/05/12 05:15:26;;;;;;;;;;;;;;;16.93;64.18;99616.19;4978589;28;19933;-69
2022/05/12 05:17:55;;;;;;;;;;;;;;;17.07;64.07;99626.97;4978497;28;20357;-69
2022/05/12 05:20:25;;;;;;;;;;;;;;;17.22;63.78;99625.69;4978370;28;20024;-69
2022/05/12 05:22:54;;;;;;;;;;;;;;;17.34;63.44;99626.19;4978137;28;19933;-69
2022/05/12 05:25:23;;;;;;;;;;;;;;;17.44;63.21;99627.59;4978038;28;19961;-69
2022/05/12 05:27:54;;;;;;;;;;;;;;;17.54;62.86;99624.78;4978130;28;20331;-69
2022/05/12 05:30:26;;;;;;;;;;;;;;;17.55;62.39;99634.22;4978047;28;20277;-70
2022/05/12 05:32:55;;;;;;;;;;;;;;;17.67;62.48;99634.69;4977588;28;19930;-69
2022/05/12 05:35:24;;;;;;;;;;;;;;;17.79;62.38;99618.84;4977855;28;19977;-69
2022/05/12 05:37:54;;;;;;;;;;;;;;;17.85;62.17;99628.94;4977929;28;19926;-68
2022/05/12 05:40:25;;;;;;;;;;;;;;;17.91;62.10;99633.09;4993173;28;20016;-69
2022/05/12 05:42:54;;;;;;;;;;;;;;;18.07;61.93;99623.97;4977868;28;19926;-69
2022/05/12 05:45:26;;;;;;;;;;;;;;;18.21;61.86;99632.09;4977163;28;19926;-69
2022/05/12 05:47:58;;;;;;;;;;;;;;;18.31;62.01;99633.50;4978061;28;20368;-69
2022/05/12 05:50:27;;;;;;;;;;;;;;;18.40;61.51;99635.81;4977368;28;19957;-69
2022/05/12 05:55:35;;;;;;;;;;;;;;;18.51;61.77;99641.47;4977509;28;19973;-69
2022/05/12 05:58:05;;;;;;;;;;;;;;;18.60;61.87;99641.16;4977878;28;19927;-69
2022/05/12 06:00:36;;;;;;;;;;;;;;;18.76;61.67;99636.34;4977500;28;19926;-69
2022/05/12 06:03:06;;;;;;;;;;;;;;;18.93;61.42;99633.97;4977646;28;20037;-69
2022/05/12 06:05:36;;;;;;;;;;;;;;;18.94;60.90;99640.00;4977994;28;20408;-69
2022/05/12 06:08:05;;;;;;;;;;;;;;;18.98;60.63;99641.59;4976875;28;19937;-68
2022/05/12 06:10:35;;;;;;;;;;;;;;;19.03;60.65;99647.44;4977470;28;19926;-69
2022/05/12 06:13:04;;;;;;;;;;;;;;;19.10;60.52;99641.16;4977263;28;20440;-69
2022/05/12 06:15:34;;;;;;;;;;;;;;;19.21;60.28;99639.03;4977075;28;20029;-69
2022/05/12 06:18:08;;;;;;;;;;;;;;;19.35;60.28;99636.75;4977442;28;19949;-69
2022/05/12 06:20:41;;;;;;;;;;;;;;;19.50;60.37;99636.25;4977104;28;20016;-69
2022/05/12 06:23:10;;;;;;;;;;;;;;;19.65;60.08;99630.44;4977455;28;20368;-69
2022/05/12 06:25:39;;;;;;;;;;;;;;;19.74;59.62;99619.75;4976809;28;19927;-69
2022/05/12 06:28:08;;;;;;;;;;;;;;;19.89;59.34;99629.50;4976989;28;20013;-69
2022/05/12 06:30:36;;;;;;;;;;;;;;;19.92;58.68;99634.56;4977278;28;19926;-69
2022/05/12 06:33:05;;;;;;;;;;;;;;;20.08;58.43;99623.59;4976840;28;19937;-69
2022/05/12 06:35:35;;;;;;;;;;;;;;;19.94;58.11;99627.56;4977180;28;19981;-68
2022/05/12 06:38:04;;;;;;;;;;;;;;;19.76;58.38;99633.50;4977069;28;19972;-68
2022/05/12 06:40:34;;;;;;;;;;;;;;;19.78;59.22;99642.03;4989909;28;19941;-68
2022/05/12 06:43:06;;;;;;;;;;;;;;;19.98;59.86;99639.53;4976064;28;20254;-68
2022/05/12 06:45:36;;;;;;;;;;;;;;;20.13;60.01;99642.41;4976338;28;19942;-69
2022/05/12 06:48:07;;;;;;;;;;;;;;;20.29;59.27;99648.69;4976671;28;19930;-68
2022/05/12 06:50:37;;;;;;;;;;;;;;;20.60;58.62;99649.13;4976505;28;19927;-69
2022/05/12 06:53:06;;;;;;;;;;;;;;;20.78;58.37;99648.31;4976379;28;19926;-68
2022/05/12 06:55:35;;;;;;;;;;;;;;;20.85;57.75;99643.72;4975184;28;19932;-69
2022/05/12 06:58:04;;;;;;;;;;;;;;;20.94;57.87;99649.38;4976059;28;19979;-68
2022/05/12 07:00:33;;;;;;;;;;;;;;;20.91;58.31;99644.31;4976038;28;19930;-68
2022/05/12 07:03:04;;;;;;;;;;;;;;;20.98;58.88;99644.88;4975885;28;19933;-68
2022/05/12 07:05:40;;;;;;;;;;;;;;;20.98;59.63;99645.72;4976255;28;19943;-67
2022/05/12 07:08:09;;;;;;;;;;;;;;;20.95;60.03;99639.81;4976115;28;19926;-67
2022/05/12 07:10:41;;;;;;;;;;;;;;;21.14;60.22;99633.78;4976327;28;20367;-68
2022/05/12 07:13:09;;;;;;;;;;;;;;;21.13;60.69;99639.91;4976470;28;19926;-68
2022/05/12 07:15:38;;;;;;;;;;;;;;;21.14;60.68;99641.56;4976110;28;20273;-67
2022/05/12 07:18:07;;;;;;;;;;;;;;;21.14;60.84;99641.56;4975137;28;20332;-67
2022/05/12 07:28:40;;;;;;;;;;;;;;;21.36;60.13;99636.25;4974992;28;19976;-67
2022/05/12 07:31:09;;;;;;;;;;;;;;;21.59;60.15;99646.47;4974807;28;19938;-67
2022/05/12 07:33:40;;;;;;;;;;;;;;;21.79;59.94;99635.09;4975368;28;20395;-68
2022/05/12 07:36:18;;;;;;;;;;;;;;;21.82;59.72;99635.81;4975749;28;19926;-67
2022/05/12 07:38:48;;;;;;;;;;;;;;;21.87;59.50;99633.88;4976055;28;19926;-67
2022/05/12 07:41:17;;;;;;;;;;;;;;;22.01;59.53;99641.88;4975969;28;19949;-68
2022/05/12 07:43:47;;;;;;;;;;;;;;;22.18;59.55;99651.44;4975415;28;19933;-68
2022/05/12 07:46:20;;;;;;;;;;;;;;;22.22;59.11;99645.16;4975482;28;20372;-67
2022/05/12 07:48:53;;;;;;;;;;;;;;;22.27;59.45;99639.75;4975614;28;19926;-67
2022/05/12 07:51:23;;;;;;;;;;;;;;;22.39;59.64;99645.19;4975450;28;20024;-68
2022/05/12 07:53:53;;;;;;;;;;;;;;;22.57;59.78;99648.66;4975411;28;20612;-67
2022/05/12 07:56:25;;;;;;;;;;;;;;;22.66;59.31;99649.06;4975733;28;20411;-68
2022/05/12 07:58:55;;;;;;;;;;;;;;;22.64;59.02;99652.66;4975359;28;19926;-67
2022/05/12 08:01:24;;;;;;;;;;;;;;;22.75;59.39;99654.72;4975711;28;19965;-67
2022/05/12 08:03:53;;;;;;;;;;;;;;;22.99;59.62;99654.28;4975519;28;20369;-68
2022/05/12 08:06:22;;;;;;;;;;;;;;;23.33;59.49;99653.38;4975327;28;19933;-67
2022/05/12 08:08:56;;;;;;;;;;;;;;;23.49;59.51;99637.81;4974979;28;19926;-68
2022/05/12 08:11:26;;;;;;;;;;;;;;;23.61;58.83;99637.13;4975988;28;20463;-68
2022/05/12 08:13:54;;;;;;;;;;;;;;;23.57;57.58;99648.63;4975543;28;19962;-68
2022/05/12 08:16:26;;;;;;;;;;;;;;;23.32;56.39;99649.91;4975067;28;19933;-67
2022/05/12 08:18:55;;;;;;;;;;;;;;;23.26;56.79;99649.41;4975400;28;19938;-67
2022/05/12 08:21:24;;;;;;;;;;;;;;;23.42;57.06;99647.69;4975309;28;19926;-68
2022/05/12 08:23:53;;;;;;;;;;;;;;;23.44;57.22;99635.44;4975096;28;20368;-67
2022/05/12 08:26:23;;;;;;;;;;;;;;;23.47;57.37;99640.47;4974051;28;19926;-68
2022/05/12 08:28:52;;;;;;;;;;;;;;;23.62;57.25;99641.41;4975339;28;20380;-68
2022/05/12 08:31:27;;;;;;;;;;;;;;;23.74;57.14;99638.13;4975061;28;19973;-67
2022/05/12 08:33:56;;;;;;;;;;;;;;;23.93;56.58;99647.47;4975024;28;19962;-67
2022/05/12 08:36:24;;;;;;;;;;;;;;;24.11;56.12;99636.97;4975097;28;20036;-68
2022/05/12 08:38:56;;;;;;;;;;;;;;;24.22;55.97;99639.78;4974906;28;19926;-67
2022/05/12 08:41:34;;;;;;;;;;;;;;;24.34;55.26;99633.88;4975738;28;19961;-68
2022/05/12 08:44:10;;;;;;;;;;;;;;;24.38;55.37;99636.22;4974791;28;20365;-68
2022/05/12 08:46:44;;;;;;;;;;;;;;;24.45;54.36;99637.53;4974931;28;19961;-67
2022/05/12 08:49:18;;;;;;;;;;;;;;;24.47;53.93;99634.84;4973610;28;20331;-67
2022/05/12 08:51:53;;;;;;;;;;;;;;;24.62;54.77;99636.53;4975133;28;19926;-67
2022/05/12 08:54:23;;;;;;;;;;;;;;;24.68;54.56;99644.03;4974727;28;19926;-67
2022/05/12 08:56:57;;;;;;;;;;;;;;;24.71;54.11;99638.63;4974672;28;19933;-68
2022/05/12 08:59:26;;;;;;;;;;;;;;;24.68;53.48;99628.38;4975370;28;19926;-67
2022/05/12 09:02:02;;;;;;;;;;;;;;;24.63;54.00;99636.47;4974791;28;19927;-68
2022/05/12 09:04:40;;;;;;;;;;;;;;;24.69;53.78;99640.47;4974780;28;20012;-68
2022/05/12 09:07:11;;;;;;;;;;;;;;;24.82;54.45;99651.91;4974698;28;19934;-67
2022/05/12 09:09:43;;;;;;;;;;;;;;;25.00;54.89;99650.81;4974691;28;19934;-67
2022/05/12 09:12:20;;;;;;;;;;;;;;;25.13;54.38;99646.53;4974668;28;19926;-68
2022/05/12 09:14:51;;;;;;;;;;;;;;;25.26;54.68;99647.47;4974739;28;19937;-68
2022/05/12 09:17:21;;;;;;;;;;;;;;;25.29;53.71;99644.66;4974266;28;19930;-68
2022/05/12 09:19:50;;;;;;;;;;;;;;;25.27;52.49;99643.06;4976198;28;19932;-67
2022/05/12 09:22:24;;;;;;;;;;;;;;;25.26;52.42;99646.63;4978171;28;19930;-69
2022/05/12 09:24:53;;;;;;;;;;;;;;;25.30;52.28;99642.88;4978648;28;19989;-68
2022/05/12 09:27:33;;;;;;;;;;;;;;;25.35;53.33;99645.22;4978193;28;19977;-68
2022/05/12 09:30:04;;;;;;;;;;;;;;;25.38;54.06;99645.03;4978415;28;19926;-68
2022/05/12 09:32:34;;;;;;;;;;;;;;;25.54;54.35;99643.16;4993072;28;19933;-67
2022/05/12 09:35:14;;;;;;;;;;;;;;;25.67;53.58;99641.47;4978230;28;19973;-69
2022/05/12 09:37:43;;;;;;;;;;;;;;;25.75;53.71;99645.28;4977867;28;20020;-67
2022/05/12 09:40:17;;;;;;;;;;;;;;;25.84;52.63;99646.50;4978187;28;19934;-69
2022/05/12 09:42:48;;;;;;;;;;;;;;;25.97;52.34;99639.50;4977786;28;19926;-69
2022/05/12 09:45:23;;;;;;;;;;;;;;;25.88;51.88;99640.09;4977832;28;19926;-68
2022/05/12 09:48:07;;;;;;;;;;;;;;;25.98;52.24;99635.97;4977710;28;20444;-68
2022/05/12 09:50:41;;;;;;;;;;;;;;;26.12;51.92;99635.09;4977987;28;19926;-69
2022/05/12 09:53:12;;;;;;;;;;;;;;;26.23;51.53;99636.06;4977671;28;20396;-69
2022/05/12 09:55:41;;;;;;;;;;;;;;;26.32;51.93;99640.69;4977556;28;20380;-67
2022/05/12 09:58:25;;;;;;;;;;;;;;;26.43;52.08;99638.22;4977556;28;19973;-68
2022/05/12 10:01:09;;;;;;;;;;;;;;;26.51;51.97;99635.91;4978017;28;19926;-67
2022/05/12 10:09:11;;;;;;;;;;;;;;;26.90;51.46;99626.38;4977353;28;19977;-68
2022/05/12 10:11:46;;;;;;;;;;;;;;;26.78;51.08;99637.69;4977227;28;19936;-68
2022/05/12 10:14:19;;;;;;;;;;;;;;;26.63;51.87;99622.97;4977211;28;19926;-68
2022/05/12 10:16:51;;;;;;;;;;;;;;;26.62;52.63;99627.34;4977175;28;19932;-67
2022/05/12 10:19:22;;;;;;;;;;;;;;;26.66;52.48;99625.38;4977506;28;19930;-67
2022/05/12 10:21:53;;;;;;;;;;;;;;;26.63;52.61;99622.97;4977096;28;19930;-67
2022/05/12 10:24:28;;;;;;;;;;;;;;;26.80;53.15;99627.94;4992052;28;19952;-68
2022/05/12 10:27:04;;;;;;;;;;;;;;;27.09;52.48;99619.72;4977054;28;20323;-67
2022/05/12 10:29:41;;;;;;;;;;;;;;;27.22;51.21;99617.09;4977064;28;20370;-68
2022/05/12 10:32:16;;;;;;;;;;;;;;;27.40;50.40;99610.63;4977283;28;19926;-69
2022/05/12 10:34:51;;;;;;;;;;;;;;;27.45;50.00;99608.47;4991960;28;20020;-67
2022/05/12 10:37:31;;;;;;;;;;;;;;;27.60;50.37;99607.38;4977007;28;19937;-68
2022/05/12 10:40:07;;;;;;;;;;;;;;;27.64;49.53;99606.22;4976788;28;19934;-68
2022/05/12 10:42:41;;;;;;;;;;;;;;;27.65;48.77;99602.66;4977044;28;19981;-67
2022/05/12 10:45:17;;;;;;;;;;;;;;;27.72;49.01;99598.63;4976990;28;20276;-68
2022/05/12 10:47:54;;;;;;;;;;;;;;;27.87;49.54;99605.41;4977180;28;20316;-67
2022/05/12 10:50:26;;;;;;;;;;;;;;;27.74;47.62;99609.84;4976988;28;19927;-68
2022/05/12 10:53:10;;;;;;;;;;;;;;;27.76;48.82;99605.31;4976790;28;19985;-68
2022/05/12 10:55:46;;;;;;;;;;;;;;;27.90;49.27;99599.09;4976711;28;19926;-69
2022/05/12 10:58:22;;;;;;;;;;;;;;;28.01;49.74;99601.78;4976533;28;19977;-67
2022/05/12 11:00:56;;;;;;;;;;;;;;;28.18;48.91;99604.00;4976365;28;19926;-67
2022/05/12 11:03:30;;;;;;;;;;;;;;;28.42;48.77;99601.34;4976943;28;19973;-67
2022/05/12 11:06:05;;;;;;;;;;;;;;;28.57;48.17;99592.31;4976916;28;19926;-69
2022/05/12 11:08:36;;;;;;;;;;;;;;;28.69;47.27;99604.53;4976195;28;19932;-67
2022/05/12 11:11:09;;;;;;;;;;;;;;;28.89;48.05;99595.13;4976170;28;19977;-68
2022/05/12 11:13:40;;;;;;;;;;;;;;;28.96;47.17;99594.50;4976010;28;19932;-67
2022/05/12 11:16:12;;;;;;;;;;;;;;;29.14;46.16;99584.38;4975099;28;20291;-68
2022/05/12 11:18:46;;;;;;;;;;;;;;;29.17;43.48;99592.88;4976341;28;19926;-68
2022/05/12 11:21:17;;;;;;;;;;;;;;;29.45;42.54;99590.69;4976051;28;19977;-67
2022/05/12 11:23:55;;;;;;;;;;;;;;;29.67;41.99;99594.13;4976025;28;19926;-67
2022/05/12 11:26:49;;;;;;;;;;;;;;;29.84;41.21;99590.16;4976010;28;19926;-68
2022/05/12 11:32:14;;;;;;;;;;;;;;;30.23;40.87;99589.53;4990885;28;19933;-68
2022/05/12 11:34:47;;;;;;;;;;;;;;;30.24;40.51;99593.81;4976007;28;19926;-68
2022/05/12 11:37:26;;;;;;;;;;;;;;;30.46;40.85;99583.19;4975708;28;20017;-68
2022/05/12 11:39:58;;;;;;;;;;;;;;;30.37;41.25;99589.22;4975765;28;20372;-67
2022/05/12 11:42:28;;;;;;;;;;;;;;;30.20;42.05;99581.88;4975198;28;19930;-68
2022/05/12 11:45:01;;;;;;;;;;;;;;;30.28;41.53;99583.88;4975790;28;20018;-68
2022/05/12 11:47:43;;;;;;;;;;;;;;;30.20;41.54;99581.03;4975575;28;19930;-68
2022/05/12 11:50:26;;;;;;;;;;;;;;;30.02;43.59;99586.00;4975569;28;19926;-69
2022/05/12 11:53:00;;;;;;;;;;;;;;;30.07;41.16;99578.56;4975348;28;19926;-68
2022/05/12 11:55:31;;;;;;;;;;;;;;;30.20;40.14;99581.88;4974291;28;20008;-68
2022/05/12 11:58:06;;;;;;;;;;;;;;;30.28;39.99;99579.41;4975746;28;20368;-68
2022/05/12 12:00:45;;;;;;;;;;;;;;;30.45;40.43;99581.50;4975458;28;19973;-68
2022/05/12 12:03:32;;;;;;;;;;;;;;;30.47;40.91;99586.66;4975539;28;19948;-68
2022/05/12 12:06:11;;;;;;;;;;;;;;;29.92;42.03;99587.75;4975312;28;19930;-68
2022/05/12 12:08:41;;;;;;;;;;;;;;;29.46;42.93;99582.69;4975502;28;19973;-68
2022/05/12 12:11:22;;;;;;;;;;;;;;;29.23;44.01;99582.84;4975354;28;19930;-68
2022/05/12 12:13:52;;;;;;;;;;;;;;;29.05;45.03;99585.94;4975532;28;19937;-68
2022/05/12 12:16:25;;;;;;;;;;;;;;;29.00;45.31;99595.97;4975203;28;20017;-68
2022/05/12 12:18:56;;;;;;;;;;;;;;;29.18;45.38;99591.94;4975070;28;19927;-68
2022/05/12 12:21:42;;;;;;;;;;;;;;;29.48;45.06;99582.56;4975182;28;19927;-68
2022/05/12 12:24:28;;;;;;;;;;;;;;;29.64;43.33;99583.84;4975208;28;20319;-68
2022/05/12 12:29:55;;;;;;;;;;;;;;;29.77;39.44;99575.81;5092391;27;19912;-67
2022/05/12 12:32:40;;;;;;;;;;;;;;;29.87;39.47;99582.03;5092079;28;20014;-67
2022/05/12 12:35:14;;;;;;;;;;;;;;;29.90;39.25;99573.84;5091412;28;20023;-67
2022/05/12 12:37:48;;;;;;;;;;;;;;;29.85;38.85;99573.38;5091816;28;19924;-68
2022/05/12 12:40:38;;;;;;;;;;;;;;;29.98;38.62;99568.78;5091724;28;19924;-68
2022/05/12 12:43:15;;;;;;;;;;;;;;;30.19;38.41;99567.00;5074029;28;20447;-67
2022/05/12 12:45:47;;;;;;;;;;;;;;;30.34;37.51;99563.13;5091309;28;19924;-67
2022/05/12 12:48:19;;;;;;;;;;;;;;;30.45;37.84;99564.84;5091191;28;20019;-67
2022/05/12 12:50:51;;;;;;;;;;;;;;;30.49;37.29;99564.50;5091199;28;19925;-66
2022/05/12 12:59:04;;;;;;;;;;;;;;;30.49;36.79;99559.22;5091063;28;19986;-67
2022/05/12 13:01:40;;;;;;;;;;;;;;;30.31;36.91;99563.34;5091263;28;19924;-69
2022/05/12 13:04:10;;;;;;;;;;;;;;;30.12;37.17;99562.38;5091502;28;20356;-68
2022/05/12 13:06:42;;;;;;;;;;;;;;;30.07;37.60;99570.66;5090909;28;19925;-68
2022/05/12 13:09:13;;;;;;;;;;;;;;;30.12;37.53;99557.97;5090802;28;19974;-67
2022/05/12 13:11:45;;;;;;;;;;;;;;;30.07;37.51;99562.75;5091132;28;19924;-66
2022/05/12 13:14:17;;;;;;;;;;;;;;;30.11;37.77;99553.66;5091218;28;20465;-69
2022/05/12 13:16:49;;;;;;;;;;;;;;;29.87;37.50;99547.78;5091152;28;19936;-67
2022/05/12 13:19:27;;;;;;;;;;;;;;;29.63;38.03;99549.78;5090582;28;20435;-66
2022/05/12 13:21:55;;;;;;;;;;;;;;;29.48;38.53;99541.31;5090896;28;19950;-67
2022/05/12 13:24:26;;;;;;;;;;;;;;;29.45;38.51;99541.56;5090879;28;19924;-67
2022/05/12 13:27:00;;;;;;;;;;;;;;;29.46;38.60;99539.75;5090927;28;19982;-65
2022/05/12 13:29:30;;;;;;;;;;;;;;;29.40;38.87;99545.50;5107710;28;19924;-68
2022/05/12 13:32:02;;;;;;;;;;;;;;;29.25;39.17;99533.59;5111161;28;19933;-67
2022/05/12 13:34:31;;;;;;;;;;;;;;;29.19;39.22;99546.28;5110857;28;19924;-67
2022/05/12 13:37:17;;;;;;;;;;;;;;;29.18;38.68;99548.97;5110570;28;19924;-66